createdAt,value
2019-01-21T00:00:18.246Z,27.75
2019-01-21T00:02:46.774Z,28.30
2019-01-21T00:05:15.226Z,26.68
2019-01-21T00:07:43.675Z,25.65
2019-01-21T00:10:12.292Z,24.60
2019-01-21T00:12:40.807Z,25.00
2019-01-21T00:15:09.896Z,26.68
2019-01-21T00:17:38.361Z,24.57
2019-01-21T00:20:07.543Z,26.00
2019-01-21T00:22:36.019Z,24.95
2019-01-21T00:25:06.276Z,23.57
2019-01-21T00:27:34.819Z,24.15
2019-01-21T00:30:03.359Z,22.70
2019-01-21T00:32:31.823Z,24.00
2019-01-21T00:35:00.358Z,23.85
2019-01-21T00:37:28.900Z,23.05
2019-01-21T00:39:57.436Z,22.82
2019-01-21T00:42:25.958Z,23.22
2019-01-21T00:44:54.420Z,22.30
2019-01-21T00:47:29.593Z,23.52
2019-01-21T00:49:53.047Z,24.12
2019-01-21T00:52:21.498Z,23.87
2019-01-21T00:54:51.068Z,24.07
2019-01-21T00:57:19.782Z,22.65
2019-01-21T00:59:48.264Z,23.35
2019-01-21T01:02:17.088Z,21.60
2019-01-21T01:04:45.560Z,21.77
2019-01-21T01:07:14.309Z,23.57
2019-01-21T01:09:42.789Z,22.70
2019-01-21T01:12:11.236Z,23.30
2019-01-21T01:14:39.921Z,22.07
2019-01-21T01:17:08.364Z,22.82
2019-01-21T01:19:36.836Z,20.85
2019-01-21T01:22:05.354Z,21.17
2019-01-21T01:24:33.817Z,22.32
2019-01-21T01:27:02.276Z,22.40
2019-01-21T01:29:30.805Z,23.27
2019-01-21T01:31:59.270Z,20.27
2019-01-21T01:34:27.738Z,20.85
2019-01-21T01:36:56.203Z,20.30
2019-01-21T01:39:24.677Z,20.52
2019-01-21T01:41:53.130Z,20.88
2019-01-21T01:44:21.726Z,19.82
2019-01-21T01:46:50.349Z,20.90
2019-01-21T01:49:18.928Z,21.25
2019-01-21T01:51:47.464Z,19.45
2019-01-21T01:54:15.928Z,19.42
2019-01-21T01:56:44.444Z,19.17
2019-01-21T01:59:13.447Z,19.20
2019-01-21T02:01:42.199Z,19.52
2019-01-21T02:04:10.729Z,19.32
2019-01-21T02:06:39.205Z,20.00
2019-01-21T02:09:08.189Z,19.02
2019-01-21T02:11:37.105Z,22.25
2019-01-21T02:14:05.797Z,20.05
2019-01-21T02:16:34.264Z,20.82
2019-01-21T02:19:02.801Z,20.45
2019-01-21T02:21:32.980Z,20.12
2019-01-21T02:24:04.600Z,20.40
2019-01-21T02:26:36.256Z,21.55
2019-01-21T02:29:08.180Z,20.25
2019-01-21T02:31:42.440Z,21.90
2019-01-21T02:34:17.076Z,22.95
2019-01-21T02:37:00.524Z,21.85
2019-01-21T02:39:52.745Z,21.10
2019-01-21T02:42:48.868Z,20.72
2019-01-21T02:45:20.469Z,20.12
2019-01-21T02:47:52.046Z,21.50
2019-01-21T02:50:30.969Z,21.20
2019-01-21T02:53:14.518Z,21.82
2019-01-21T02:56:03.563Z,22.77
2019-01-21T02:58:37.993Z,21.55
2019-01-21T03:01:12.371Z,22.32
2019-01-21T03:03:50.165Z,21.70
2019-01-21T03:06:21.700Z,23.05
2019-01-21T03:09:08.339Z,22.22
2019-01-21T03:11:55.333Z,23.12
2019-01-21T03:14:39.523Z,22.20
2019-01-21T03:17:29.577Z,20.92
2019-01-21T03:20:16.388Z,22.25
2019-01-21T03:22:47.985Z,21.57
2019-01-21T03:25:25.747Z,22.87
2019-01-21T03:28:02.831Z,19.95
2019-01-21T03:30:51.267Z,20.95
2019-01-21T03:33:34.918Z,22.93
2019-01-21T03:36:06.577Z,21.10
2019-01-21T03:38:52.551Z,20.17
2019-01-21T03:41:30.072Z,21.80
2019-01-21T03:44:04.513Z,20.40
2019-01-21T03:46:57.050Z,21.17
2019-01-21T03:49:37.555Z,20.20
2019-01-21T03:52:24.488Z,19.35
2019-01-21T03:54:53.771Z,20.72
2019-01-21T03:57:25.375Z,18.92
2019-01-21T04:00:18.430Z,19.20
2019-01-21T04:02:56.005Z,18.85
2019-01-21T04:05:27.625Z,19.52
2019-01-21T04:08:01.953Z,20.12
2019-01-21T04:10:42.282Z,18.90
2019-01-21T04:13:22.693Z,18.73
2019-01-21T04:16:06.322Z,18.67
2019-01-21T04:18:47.060Z,18.87
2019-01-21T04:21:27.777Z,18.65
2019-01-21T04:24:14.621Z,18.73
2019-01-21T04:26:51.950Z,17.77
2019-01-21T04:29:41.732Z,18.92
2019-01-21T04:32:28.800Z,19.98
2019-01-21T04:35:06.108Z,18.37
2019-01-21T04:37:52.802Z,18.07
2019-01-21T04:40:27.212Z,17.40
2019-01-21T04:43:23.232Z,17.95
2019-01-21T04:46:06.568Z,15.10
2019-01-21T04:48:53.236Z,16.87
2019-01-21T04:51:40.175Z,15.98
2019-01-21T04:54:29.886Z,15.28
2019-01-21T04:57:16.717Z,14.20
2019-01-21T05:00:03.464Z,15.43
2019-01-21T05:02:34.993Z,15.75
2019-01-21T05:05:29.087Z,15.60
2019-01-21T05:08:25.809Z,14.20
2019-01-21T05:11:03.160Z,14.38
2019-01-21T05:13:37.636Z,13.43
2019-01-21T05:16:20.677Z,12.80
2019-01-21T05:19:07.016Z,14.15
2019-01-21T05:22:04.298Z,14.15
2019-01-21T05:24:41.854Z,14.60
2019-01-21T05:27:16.226Z,14.63
2019-01-21T05:30:18.003Z,13.70
2019-01-21T05:32:58.332Z,13.62
2019-01-21T05:35:52.117Z,13.20
2019-01-21T05:38:23.660Z,14.13
2019-01-21T05:41:07.177Z,14.40
2019-01-21T05:44:05.531Z,13.95
2019-01-21T05:46:46.042Z,14.73
2019-01-21T05:49:20.390Z,14.47
2019-01-21T05:52:03.391Z,14.40
2019-01-21T05:55:00.520Z,14.90
2019-01-21T05:57:47.700Z,14.25
2019-01-21T06:00:31.200Z,13.83
2019-01-21T06:03:23.686Z,14.13
2019-01-21T06:06:10.003Z,15.05
2019-01-21T06:08:56.852Z,13.22
2019-01-21T06:11:37.409Z,13.30
2019-01-21T06:14:12.051Z,14.47
2019-01-21T06:16:46.440Z,14.68
2019-01-21T06:19:17.987Z,14.03
2019-01-21T06:21:52.465Z,14.50
2019-01-21T06:24:35.868Z,13.10
2019-01-21T06:27:16.354Z,13.68
2019-01-21T06:29:50.757Z,13.62
2019-01-21T06:32:46.428Z,14.80
2019-01-21T06:35:29.693Z,13.38
2019-01-21T06:38:17.425Z,13.30
2019-01-21T06:40:54.668Z,13.40
2019-01-21T06:43:45.516Z,13.53
2019-01-21T06:46:29.102Z,13.48
2019-01-21T06:49:17.232Z,13.10
2019-01-21T06:51:58.076Z,13.03
2019-01-21T06:54:44.958Z,13.50
2019-01-21T06:57:25.613Z,13.30
2019-01-21T07:00:08.944Z,13.32
2019-01-21T07:03:01.356Z,13.60
2019-01-21T07:05:41.599Z,12.98
2019-01-21T07:08:18.815Z,12.90
2019-01-21T07:10:53.307Z,13.68
2019-01-21T07:13:42.867Z,14.70
2019-01-21T07:16:17.080Z,12.95
2019-01-21T07:19:21.863Z,13.20
2019-01-21T07:22:02.213Z,12.95
2019-01-21T07:24:42.523Z,13.35
2019-01-21T07:27:19.801Z,12.90
2019-01-21T07:29:54.288Z,13.75
2019-01-21T07:32:28.315Z,14.30
2019-01-21T07:35:11.971Z,13.98
2019-01-21T07:37:46.080Z,14.70
2019-01-21T07:40:29.868Z,15.08
2019-01-21T07:43:07.228Z,13.38
2019-01-21T07:45:41.454Z,13.15
2019-01-21T07:48:43.966Z,13.53
2019-01-21T07:51:24.335Z,13.25
2019-01-21T07:54:10.758Z,14.28
2019-01-21T07:57:09.452Z,14.83
2019-01-21T07:59:52.900Z,14.18
2019-01-21T08:02:42.506Z,15.35
2019-01-21T08:05:16.780Z,17.48
2019-01-21T08:07:48.357Z,17.67
2019-01-21T08:10:37.140Z,18.75
2019-01-21T08:13:36.956Z,17.67
2019-01-21T08:16:43.224Z,18.57
2019-01-21T08:19:24.294Z,18.10
2019-01-21T08:22:14.236Z,17.55
2019-01-21T08:24:57.083Z,18.57
2019-01-21T08:27:34.353Z,17.25
2019-01-21T08:30:17.748Z,18.90
2019-01-21T08:33:08.749Z,21.15
2019-01-21T08:35:49.467Z,21.45
2019-01-21T08:38:32.992Z,21.62
2019-01-21T08:41:18.845Z,20.92
2019-01-21T08:44:19.569Z,21.48
2019-01-21T08:47:05.677Z,21.12
2019-01-21T08:49:37.225Z,21.62
2019-01-21T08:52:32.846Z,22.87
2019-01-21T08:55:31.592Z,21.93
2019-01-21T08:58:32.115Z,24.45
2019-01-21T09:01:18.725Z,24.55
2019-01-21T09:04:02.586Z,25.90
2019-01-21T09:06:39.965Z,25.85
2019-01-21T09:09:28.116Z,25.88
2019-01-21T09:12:14.932Z,25.97
2019-01-21T09:15:01.443Z,24.80
2019-01-21T09:18:00.164Z,25.75
2019-01-21T09:20:48.388Z,25.82
2019-01-21T09:23:42.451Z,23.77
2019-01-21T09:26:22.576Z,27.17
2019-01-21T09:29:09.016Z,27.10
2019-01-21T09:31:56.855Z,26.23
2019-01-21T09:34:49.969Z,25.68
2019-01-21T09:37:24.108Z,23.90
2019-01-21T09:40:28.878Z,24.77
2019-01-21T09:43:15.467Z,22.35
2019-01-21T09:45:55.750Z,22.80
2019-01-21T09:48:23.129Z,22.35
2019-01-21T09:50:52.221Z,21.50
2019-01-21T09:53:20.828Z,21.52
2019-01-21T09:55:50.922Z,21.65
2019-01-21T09:58:22.522Z,22.07
2019-01-21T10:00:51.034Z,21.65
2019-01-21T10:03:20.425Z,21.45
2019-01-21T10:05:52.321Z,22.10
2019-01-21T10:08:26.777Z,19.80
2019-01-21T10:11:07.456Z,19.35
2019-01-21T10:13:50.312Z,19.07
2019-01-21T10:16:41.392Z,18.65
2019-01-21T10:19:32.350Z,19.15
2019-01-21T10:22:03.892Z,18.23
2019-01-21T10:24:53.732Z,20.27
2019-01-21T10:27:37.258Z,21.05
2019-01-21T10:30:24.037Z,20.30
2019-01-21T10:33:12.350Z,20.57
2019-01-21T10:35:58.941Z,19.25
2019-01-21T10:38:51.128Z,19.42
2019-01-21T10:41:31.484Z,19.25
2019-01-21T10:44:03.021Z,20.50
2019-01-21T10:46:46.443Z,19.25
2019-01-21T10:49:57.096Z,20.48
2019-01-21T10:52:48.060Z,17.95
2019-01-21T10:55:25.557Z,18.95
2019-01-21T10:58:17.991Z,18.65
2019-01-21T11:01:18.263Z,16.67
2019-01-21T11:03:49.809Z,16.40
2019-01-21T11:06:38.020Z,16.82
2019-01-21T11:09:26.676Z,17.15
2019-01-21T11:12:09.812Z,17.60
2019-01-21T11:14:47.355Z,16.25
2019-01-21T11:17:30.925Z,17.25
2019-01-21T11:20:20.742Z,18.45
2019-01-21T11:23:03.903Z,17.00
2019-01-21T11:25:44.222Z,18.37
2019-01-21T11:28:21.529Z,17.73
2019-01-21T11:30:58.683Z,17.98
2019-01-21T11:33:35.967Z,18.32
2019-01-21T11:36:19.086Z,17.25
2019-01-21T11:38:50.616Z,16.77
2019-01-21T11:41:28.166Z,17.70
2019-01-21T11:44:14.767Z,18.15
2019-01-21T11:46:54.963Z,16.00
2019-01-21T11:49:32.237Z,12.93
2019-01-21T11:52:12.040Z,13.88
2019-01-21T11:55:09.308Z,14.83
2019-01-21T11:58:08.392Z,13.70
2019-01-21T12:01:01.441Z,14.45
2019-01-21T12:04:00.539Z,13.23
2019-01-21T12:06:35.122Z,13.07
2019-01-21T12:09:25.925Z,15.57
2019-01-21T12:12:00.368Z,14.07
2019-01-21T12:14:34.703Z,15.90
2019-01-21T12:17:36.224Z,15.20
2019-01-21T12:20:19.134Z,13.93
2019-01-21T12:23:08.744Z,14.60
2019-01-21T12:25:55.080Z,13.23
2019-01-21T12:28:44.568Z,14.33
2019-01-21T12:31:46.661Z,13.13
2019-01-21T12:34:18.201Z,13.10
2019-01-21T12:36:55.114Z,13.10
2019-01-21T12:39:29.390Z,14.10
2019-01-21T12:42:03.809Z,14.10
2019-01-21T12:44:59.648Z,13.67
2019-01-21T12:47:33.906Z,14.83
2019-01-21T12:50:24.103Z,14.33
2019-01-21T12:53:21.603Z,13.57
2019-01-21T12:56:02.193Z,13.60
2019-01-21T12:58:42.533Z,12.97
2019-01-21T13:01:19.596Z,13.70
2019-01-21T13:04:00.080Z,13.17
2019-01-21T13:06:37.724Z,13.70
2019-01-21T13:09:24.384Z,13.00
2019-01-21T13:11:59.102Z,12.70
2019-01-21T13:14:39.172Z,11.97
2019-01-21T13:17:10.703Z,12.17
2019-01-21T13:19:50.861Z,12.33
2019-01-21T13:22:43.559Z,12.23
2019-01-21T13:25:38.984Z,12.03
2019-01-21T13:28:10.561Z,11.60
2019-01-21T13:30:53.864Z,11.87
2019-01-21T13:33:42.204Z,11.77
2019-01-21T13:36:19.405Z,12.40
2019-01-21T13:39:05.319Z,12.20
2019-01-21T13:41:36.835Z,12.07
2019-01-21T13:44:17.498Z,12.63
2019-01-21T13:46:54.763Z,12.03
2019-01-21T13:49:32.175Z,12.63
2019-01-21T13:52:12.554Z,13.43
2019-01-21T13:55:09.676Z,13.33
2019-01-21T13:57:41.339Z,12.73
2019-01-21T14:00:12.926Z,13.00
2019-01-21T14:02:44.497Z,13.60
2019-01-21T14:05:30.876Z,13.10
2019-01-21T14:08:03.498Z,14.30
2019-01-21T14:10:40.720Z,13.93
2019-01-21T14:13:26.547Z,14.67
2019-01-21T14:16:09.560Z,15.33
2019-01-21T14:18:56.232Z,15.03
2019-01-21T14:21:43.096Z,15.20
2019-01-21T14:24:34.150Z,14.97
2019-01-21T14:27:23.863Z,14.40
2019-01-21T14:30:07.597Z,13.67
2019-01-21T14:32:39.167Z,13.80
2019-01-21T14:35:16.571Z,13.37
2019-01-21T14:37:53.896Z,13.70
2019-01-21T14:40:46.197Z,13.43
2019-01-21T14:43:20.630Z,13.63
2019-01-21T14:46:04.272Z,14.30
2019-01-21T14:48:47.411Z,14.23
2019-01-21T14:51:35.466Z,13.33
2019-01-21T14:54:13.304Z,13.77
2019-01-21T14:56:47.813Z,13.30
2019-01-21T14:59:28.874Z,14.27
2019-01-21T15:02:00.803Z,14.77
2019-01-21T15:04:38.712Z,14.67
2019-01-21T15:07:12.853Z,14.27
2019-01-21T15:09:49.634Z,14.73
2019-01-21T15:12:30.499Z,14.77
2019-01-21T15:15:21.727Z,15.97
2019-01-21T15:18:16.245Z,15.87
2019-01-21T15:20:57.642Z,15.23
2019-01-21T15:23:32.261Z,14.63
2019-01-21T15:26:21.948Z,15.50
2019-01-21T15:29:19.195Z,15.50
2019-01-21T15:31:56.853Z,16.53
2019-01-21T15:34:59.075Z,17.00
2019-01-21T15:37:33.186Z,16.27
2019-01-21T15:40:26.120Z,17.90
2019-01-21T15:43:06.783Z,16.63
2019-01-21T15:45:56.281Z,17.10
2019-01-21T15:48:33.689Z,16.73
2019-01-21T15:51:19.779Z,16.67
2019-01-21T15:53:54.100Z,17.43
2019-01-21T15:56:25.657Z,17.70
2019-01-21T15:59:06.420Z,19.12
2019-01-21T16:01:43.929Z,19.93
2019-01-21T16:04:18.199Z,18.60
2019-01-21T16:06:58.724Z,18.55
2019-01-21T16:09:51.356Z,19.10
2019-01-21T16:12:25.456Z,19.23
2019-01-21T16:14:59.726Z,20.37
2019-01-21T16:17:43.284Z,19.62
2019-01-21T16:20:14.810Z,21.23
2019-01-21T16:22:49.218Z,21.33
2019-01-21T16:25:29.369Z,21.12
2019-01-21T16:28:20.606Z,21.55
2019-01-21T16:31:04.005Z,21.00
2019-01-21T16:33:35.885Z,22.37
2019-01-21T16:36:19.342Z,23.65
2019-01-21T16:38:51.391Z,21.97
2019-01-21T16:41:25.580Z,22.85
2019-01-21T16:43:54.120Z,22.67
2019-01-21T16:46:22.628Z,24.52
2019-01-21T16:48:51.236Z,24.72
2019-01-21T16:51:20.462Z,24.77
2019-01-21T16:53:49.381Z,25.40
2019-01-21T16:56:17.940Z,25.70
2019-01-21T16:58:46.520Z,26.50
2019-01-21T17:01:15.046Z,25.37
2019-01-21T17:03:43.607Z,27.58
2019-01-21T17:06:12.243Z,26.12
2019-01-21T17:08:40.829Z,26.95
2019-01-21T17:11:09.317Z,26.00
2019-01-21T17:13:38.082Z,26.68
2019-01-21T17:16:06.755Z,25.82
2019-01-21T17:18:35.192Z,27.55
2019-01-21T17:21:03.852Z,26.00
2019-01-21T17:23:32.317Z,25.62
2019-01-21T17:26:00.769Z,29.05
2019-01-21T17:28:29.452Z,29.90
2019-01-21T17:30:57.991Z,28.07
2019-01-21T17:33:26.648Z,30.02
2019-01-21T17:35:55.089Z,30.85
2019-01-21T17:38:23.618Z,32.67
2019-01-21T17:40:52.305Z,32.13
2019-01-21T17:43:20.862Z,34.85
2019-01-21T17:45:49.320Z,36.00
2019-01-21T17:48:17.792Z,35.45
2019-01-21T17:50:46.460Z,33.55
2019-01-21T17:53:15.086Z,34.78
2019-01-21T17:55:43.699Z,33.02
2019-01-21T17:58:12.203Z,34.23
2019-01-21T18:00:40.777Z,34.80
2019-01-21T18:03:09.207Z,34.78
2019-01-21T18:05:37.669Z,35.92
2019-01-21T18:08:06.117Z,32.88
2019-01-21T18:10:34.656Z,34.10
2019-01-21T18:13:03.309Z,33.92
2019-01-21T18:15:32.000Z,34.45
2019-01-21T18:18:00.649Z,33.85
2019-01-21T18:20:29.259Z,34.95
2019-01-21T18:22:57.776Z,32.90
2019-01-21T18:25:26.370Z,32.65
2019-01-21T18:27:54.912Z,32.00
2019-01-21T18:30:24.629Z,30.43
2019-01-21T18:32:53.200Z,30.65
2019-01-21T18:35:21.985Z,29.70
2019-01-21T18:37:50.524Z,29.75
2019-01-21T18:40:21.054Z,29.75
2019-01-21T18:42:50.253Z,28.55
2019-01-21T18:45:23.969Z,28.00
2019-01-21T18:47:52.432Z,32.58
2019-01-21T18:50:20.979Z,32.17
2019-01-21T18:52:50.516Z,31.30
2019-01-21T18:55:19.121Z,30.62
2019-01-21T18:57:47.746Z,28.92
2019-01-21T19:00:21.821Z,28.77
2019-01-21T19:02:50.604Z,30.55
2019-01-21T19:05:19.344Z,28.27
2019-01-21T19:07:47.948Z,27.98
2019-01-21T19:10:18.395Z,27.60
2019-01-21T19:12:47.000Z,31.42
2019-01-21T19:15:22.716Z,26.77
2019-01-21T19:17:51.222Z,26.90
2019-01-21T19:20:20.006Z,30.43
2019-01-21T19:22:48.563Z,28.02
2019-01-21T19:25:17.386Z,29.48
2019-01-21T19:27:46.107Z,26.73
2019-01-21T19:30:17.694Z,26.97
2019-01-21T19:32:46.642Z,26.52
2019-01-21T19:35:17.985Z,26.20
2019-01-21T19:37:46.632Z,26.40
2019-01-21T19:40:18.037Z,25.40
2019-01-21T19:42:46.684Z,26.37
2019-01-21T19:45:15.539Z,26.97
2019-01-21T19:47:44.103Z,26.42
2019-01-21T19:50:16.167Z,25.48
2019-01-21T19:52:44.684Z,25.02
2019-01-21T19:55:28.193Z,22.48
2019-01-21T19:57:57.414Z,25.77
2019-01-21T20:00:26.424Z,23.85
2019-01-21T20:02:55.047Z,23.52
2019-01-21T20:05:23.526Z,22.25
2019-01-21T20:07:52.145Z,23.02
2019-01-21T20:10:23.877Z,21.50
2019-01-21T20:12:52.551Z,22.20
2019-01-21T20:15:21.273Z,21.68
2019-01-21T20:17:49.897Z,21.05
2019-01-21T20:20:24.505Z,20.27
2019-01-21T20:22:57.469Z,19.20
2019-01-21T20:25:23.176Z,19.60
2019-01-21T20:27:51.740Z,19.50
2019-01-21T20:30:22.904Z,19.62
2019-01-21T20:32:53.562Z,18.55
2019-01-21T20:35:22.253Z,19.05
2019-01-21T20:37:50.894Z,20.20
2019-01-21T20:40:22.257Z,18.98
2019-01-21T20:42:51.003Z,20.52
2019-01-21T20:45:19.737Z,19.87
2019-01-21T20:47:48.437Z,21.23
2019-01-21T20:50:19.553Z,21.85
2019-01-21T20:52:48.022Z,19.87
2019-01-21T20:55:17.530Z,19.42
2019-01-21T20:57:46.243Z,20.27
2019-01-21T21:00:26.284Z,18.35
2019-01-21T21:02:55.883Z,19.67
2019-01-21T21:05:24.682Z,17.32
2019-01-21T21:07:53.331Z,18.70
2019-01-21T21:10:22.021Z,18.87
2019-01-21T21:12:50.573Z,18.35
2019-01-21T21:15:25.368Z,17.32
2019-01-21T21:17:53.929Z,16.95
2019-01-21T21:20:22.452Z,19.70
2019-01-21T21:22:51.078Z,19.80
2019-01-21T21:25:20.433Z,18.95
2019-01-21T21:27:48.992Z,20.72
2019-01-21T21:30:26.474Z,20.15
2019-01-21T21:32:55.019Z,20.10
2019-01-21T21:35:23.924Z,17.42
2019-01-21T21:37:52.473Z,18.37
2019-01-21T21:40:22.625Z,18.55
2019-01-21T21:42:51.357Z,18.77
2019-01-21T21:45:22.235Z,18.82
2019-01-21T21:47:51.156Z,18.75
2019-01-21T21:50:25.349Z,17.50
2019-01-21T21:52:53.917Z,18.55
2019-01-21T21:55:22.436Z,19.80
2019-01-21T21:57:50.980Z,18.37
2019-01-21T22:00:22.048Z,19.32
2019-01-21T22:02:50.657Z,16.95
2019-01-21T22:05:19.940Z,19.15
2019-01-21T22:07:48.645Z,17.35
2019-01-21T22:10:23.088Z,17.90
2019-01-21T22:12:52.036Z,13.83
2019-01-21T22:15:22.189Z,16.70
2019-01-21T22:17:50.742Z,16.55
2019-01-21T22:20:21.435Z,17.42
2019-01-21T22:22:50.047Z,17.07
2019-01-21T22:25:19.038Z,16.27
2019-01-21T22:27:47.557Z,16.05
2019-01-21T22:30:24.309Z,17.42
2019-01-21T22:32:52.763Z,16.77
2019-01-21T22:35:21.365Z,15.85
2019-01-21T22:37:49.984Z,16.15
2019-01-21T22:40:20.273Z,15.48
2019-01-21T22:42:48.810Z,16.57
2019-01-21T22:45:18.673Z,16.52
2019-01-21T22:47:47.396Z,12.75
2019-01-21T22:50:17.250Z,13.70
2019-01-21T22:52:45.835Z,13.32
2019-01-21T22:55:15.646Z,13.20
2019-01-21T22:57:44.305Z,11.85
2019-01-21T23:00:21.380Z,12.73
2019-01-21T23:02:49.914Z,11.25
2019-01-21T23:05:18.483Z,10.08
2019-01-21T23:07:47.009Z,10.60
2019-01-21T23:10:15.617Z,9.78
2019-01-21T23:12:44.132Z,8.75
2019-01-21T23:15:13.111Z,8.50
2019-01-21T23:17:41.727Z,7.65
2019-01-21T23:20:11.397Z,6.30
2019-01-21T23:22:39.848Z,6.72
2019-01-21T23:25:08.827Z,7.53
2019-01-21T23:27:37.646Z,5.53
2019-01-21T23:30:11.888Z,5.90
2019-01-21T23:32:40.415Z,5.03
2019-01-21T23:35:08.943Z,4.87
2019-01-21T23:37:37.535Z,5.00
2019-01-21T23:40:09.237Z,4.33
2019-01-21T23:42:37.686Z,4.10
2019-01-21T23:45:08.602Z,4.83
2019-01-21T23:47:37.107Z,4.05
2019-01-21T23:50:11.566Z,4.50
2019-01-21T23:52:40.541Z,3.75
2019-01-21T23:55:10.940Z,4.10
2019-01-21T23:57:39.549Z,3.80
